sensor_id;sensor_type;location;lat;lon;timestamp;P1;durP1;ratioP1;P2;durP2;ratioP2
17761;SDS011;9005;48.838;10.112;2022-07-10T00:00:06;2.72;;;2.10;;
17761;SDS011;9005;48.838;10.112;2022-07-10T00:02:37;2.85;;;2.28;;
17761;SDS011;9005;48.838;10.112;2022-07-10T00:05:05;2.38;;;2.17;;
17761;SDS011;9005;48.838;10.112;2022-07-10T00:07:32;2.92;;;2.65;;
17761;SDS011;9005;48.838;10.112;2022-07-10T00:09:59;3.15;;;1.88;;
17761;SDS011;9005;48.838;10.112;2022-07-10T00:12:26;3.10;;;2.78;;
17761;SDS011;9005;48.838;10.112;2022-07-10T00:14:53;2.13;;;1.50;;
17761;SDS011;9005;48.838;10.112;2022-07-10T00:17:20;2.08;;;1.88;;
17761;SDS011;9005;48.838;10.112;2022-07-10T00:19:48;1.92;;;1.70;;
17761;SDS011;9005;48.838;10.112;2022-07-10T00:22:15;1.60;;;1.50;;
17761;SDS011;9005;48.838;10.112;2022-07-10T00:24:42;2.25;;;2.00;;
17761;SDS011;9005;48.838;10.112;2022-07-10T00:27:09;4.28;;;2.45;;
17761;SDS011;9005;48.838;10.112;2022-07-10T00:29:36;1.90;;;1.70;;
17761;SDS011;9005;48.838;10.112;2022-07-10T00:32:04;2.85;;;1.90;;
17761;SDS011;9005;48.838;10.112;2022-07-10T00:34:31;2.90;;;2.35;;
17761;SDS011;9005;48.838;10.112;2022-07-10T00:36:59;1.83;;;1.73;;
17761;SDS011;9005;48.838;10.112;2022-07-10T00:39:26;3.92;;;3.53;;
17761;SDS011;9005;48.838;10.112;2022-07-10T00:41:53;2.03;;;1.92;;
17761;SDS011;9005;48.838;10.112;2022-07-10T00:44:20;2.30;;;1.83;;
17761;SDS011;9005;48.838;10.112;2022-07-10T00:46:47;2.35;;;2.17;;
17761;SDS011;9005;48.838;10.112;2022-07-10T00:49:14;3.60;;;1.92;;
17761;SDS011;9005;48.838;10.112;2022-07-10T00:51:40;3.95;;;3.28;;
17761;SDS011;9005;48.838;10.112;2022-07-10T00:54:09;1.40;;;1.30;;
17761;SDS011;9005;48.838;10.112;2022-07-10T00:56:36;8.30;;;7.50;;
17761;SDS011;9005;48.838;10.112;2022-07-10T00:59:03;9.48;;;8.25;;
17761;SDS011;9005;48.838;10.112;2022-07-10T01:01:30;1.55;;;1.45;;
17761;SDS011;9005;48.838;10.112;2022-07-10T01:03:58;1.60;;;1.50;;
17761;SDS011;9005;48.838;10.112;2022-07-10T01:06:25;1.50;;;1.40;;
17761;SDS011;9005;48.838;10.112;2022-07-10T01:08:52;2.70;;;1.90;;
17761;SDS011;9005;48.838;10.112;2022-07-10T01:11:20;3.25;;;1.60;;
17761;SDS011;9005;48.838;10.112;2022-07-10T01:13:47;2.35;;;1.95;;
17761;SDS011;9005;48.838;10.112;2022-07-10T01:16:14;1.98;;;1.73;;
17761;SDS011;9005;48.838;10.112;2022-07-10T01:18:41;1.80;;;1.70;;
17761;SDS011;9005;48.838;10.112;2022-07-10T01:21:23;1.90;;;1.80;;
17761;SDS011;9005;48.838;10.112;2022-07-10T01:23:51;1.92;;;1.83;;
17761;SDS011;9005;48.838;10.112;2022-07-10T01:26:18;2.28;;;1.95;;
17761;SDS011;9005;48.838;10.112;2022-07-10T01:28:46;1.80;;;1.70;;
17761;SDS011;9005;48.838;10.112;2022-07-10T01:31:14;2.30;;;2.10;;
17761;SDS011;9005;48.838;10.112;2022-07-10T01:33:42;3.70;;;2.00;;
17761;SDS011;9005;48.838;10.112;2022-07-10T01:36:09;2.60;;;2.40;;
17761;SDS011;9005;48.838;10.112;2022-07-10T01:38:38;2.20;;;2.00;;
17761;SDS011;9005;48.838;10.112;2022-07-10T01:41:05;2.60;;;2.40;;
17761;SDS011;9005;48.838;10.112;2022-07-10T01:43:33;3.13;;;1.90;;
17761;SDS011;9005;48.838;10.112;2022-07-10T01:46:00;2.85;;;1.90;;
17761;SDS011;9005;48.838;10.112;2022-07-10T01:48:27;3.30;;;2.63;;
17761;SDS011;9005;48.838;10.112;2022-07-10T01:50:54;2.95;;;2.30;;
17761;SDS011;9005;48.838;10.112;2022-07-10T01:53:21;2.08;;;1.98;;
17761;SDS011;9005;48.838;10.112;2022-07-10T01:55:50;2.35;;;2.13;;
17761;SDS011;9005;48.838;10.112;2022-07-10T01:58:16;2.92;;;2.10;;
17761;SDS011;9005;48.838;10.112;2022-07-10T02:00:43;3.47;;;1.95;;
17761;SDS011;9005;48.838;10.112;2022-07-10T02:03:11;2.10;;;1.90;;
17761;SDS011;9005;48.838;10.112;2022-07-10T02:05:55;2.17;;;1.95;;
17761;SDS011;9005;48.838;10.112;2022-07-10T02:08:22;3.42;;;1.83;;
17761;SDS011;9005;48.838;10.112;2022-07-10T02:10:50;3.80;;;2.08;;
17761;SDS011;9005;48.838;10.112;2022-07-10T02:13:17;2.08;;;1.98;;
17761;SDS011;9005;48.838;10.112;2022-07-10T02:15:45;3.55;;;2.22;;
17761;SDS011;9005;48.838;10.112;2022-07-10T02:18:12;2.33;;;2.13;;
17761;SDS011;9005;48.838;10.112;2022-07-10T02:20:39;2.75;;;2.30;;
17761;SDS011;9005;48.838;10.112;2022-07-10T02:23:06;2.95;;;2.25;;
17761;SDS011;9005;48.838;10.112;2022-07-10T02:25:33;2.30;;;2.10;;
17761;SDS011;9005;48.838;10.112;2022-07-10T02:28:01;2.78;;;2.58;;
17761;SDS011;9005;48.838;10.112;2022-07-10T02:30:28;2.75;;;2.08;;
17761;SDS011;9005;48.838;10.112;2022-07-10T02:32:55;2.35;;;2.17;;
17761;SDS011;9005;48.838;10.112;2022-07-10T02:35:23;3.00;;;2.30;;
17761;SDS011;9005;48.838;10.112;2022-07-10T02:37:49;2.35;;;2.25;;
17761;SDS011;9005;48.838;10.112;2022-07-10T02:40:16;2.17;;;2.00;;
17761;SDS011;9005;48.838;10.112;2022-07-10T02:42:43;2.38;;;2.15;;
17761;SDS011;9005;48.838;10.112;2022-07-10T02:45:12;3.42;;;1.90;;
17761;SDS011;9005;48.838;10.112;2022-07-10T02:47:38;2.40;;;2.20;;
17761;SDS011;9005;48.838;10.112;2022-07-10T02:50:06;2.35;;;2.15;;
17761;SDS011;9005;48.838;10.112;2022-07-10T02:52:33;2.60;;;2.40;;
17761;SDS011;9005;48.838;10.112;2022-07-10T02:55:00;2.47;;;2.28;;
17761;SDS011;9005;48.838;10.112;2022-07-10T02:57:27;2.22;;;2.08;;
17761;SDS011;9005;48.838;10.112;2022-07-10T02:59:54;3.83;;;2.20;;
17761;SDS011;9005;48.838;10.112;2022-07-10T03:02:22;2.75;;;2.50;;
17761;SDS011;9005;48.838;10.112;2022-07-10T03:04:49;3.97;;;2.30;;
17761;SDS011;9005;48.838;10.112;2022-07-10T03:07:16;2.70;;;2.50;;
17761;SDS011;9005;48.838;10.112;2022-07-10T03:09:42;2.85;;;2.55;;
17761;SDS011;9005;48.838;10.112;2022-07-10T03:12:09;2.85;;;2.47;;
17761;SDS011;9005;48.838;10.112;2022-07-10T03:14:36;2.90;;;2.20;;
17761;SDS011;9005;48.838;10.112;2022-07-10T03:17:03;2.63;;;2.42;;
17761;SDS011;9005;48.838;10.112;2022-07-10T03:19:32;2.58;;;2.38;;
17761;SDS011;9005;48.838;10.112;2022-07-10T03:21:59;2.42;;;2.20;;
17761;SDS011;9005;48.838;10.112;2022-07-10T03:24:26;4.18;;;2.60;;
17761;SDS011;9005;48.838;10.112;2022-07-10T03:26:53;2.53;;;2.25;;
17761;SDS011;9005;48.838;10.112;2022-07-10T03:29:20;3.13;;;2.60;;
17761;SDS011;9005;48.838;10.112;2022-07-10T03:31:47;2.35;;;2.15;;
17761;SDS011;9005;48.838;10.112;2022-07-10T03:34:13;4.40;;;2.38;;
17761;SDS011;9005;48.838;10.112;2022-07-10T03:36:42;3.30;;;2.10;;
17761;SDS011;9005;48.838;10.112;2022-07-10T03:39:08;2.50;;;2.30;;
17761;SDS011;9005;48.838;10.112;2022-07-10T03:41:35;5.22;;;3.00;;
17761;SDS011;9005;48.838;10.112;2022-07-10T03:44:02;3.25;;;2.50;;
17761;SDS011;9005;48.838;10.112;2022-07-10T03:46:30;3.50;;;2.22;;
17761;SDS011;9005;48.838;10.112;2022-07-10T03:48:57;2.40;;;2.20;;
17761;SDS011;9005;48.838;10.112;2022-07-10T03:51:24;3.70;;;2.40;;
17761;SDS011;9005;48.838;10.112;2022-07-10T03:53:53;3.00;;;2.30;;
17761;SDS011;9005;48.838;10.112;2022-07-10T03:56:20;2.42;;;2.22;;
17761;SDS011;9005;48.838;10.112;2022-07-10T03:59:04;3.00;;;2.53;;
17761;SDS011;9005;48.838;10.112;2022-07-10T04:01:31;2.75;;;2.55;;
17761;SDS011;9005;48.838;10.112;2022-07-10T04:03:58;2.50;;;2.30;;
17761;SDS011;9005;48.838;10.112;2022-07-10T04:06:24;2.50;;;2.30;;
17761;SDS011;9005;48.838;10.112;2022-07-10T04:08:53;2.22;;;1.95;;
17761;SDS011;9005;48.838;10.112;2022-07-10T04:11:19;2.50;;;2.30;;
17761;SDS011;9005;48.838;10.112;2022-07-10T04:13:46;3.58;;;3.28;;
17761;SDS011;9005;48.838;10.112;2022-07-10T04:16:13;3.28;;;2.55;;
17761;SDS011;9005;48.838;10.112;2022-07-10T04:18:40;2.33;;;2.10;;
17761;SDS011;9005;48.838;10.112;2022-07-10T04:21:07;2.55;;;2.45;;
17761;SDS011;9005;48.838;10.112;2022-07-10T04:23:34;3.33;;;2.45;;
17761;SDS011;9005;48.838;10.112;2022-07-10T04:26:02;2.60;;;2.28;;
17761;SDS011;9005;48.838;10.112;2022-07-10T04:28:30;2.85;;;2.15;;
17761;SDS011;9005;48.838;10.112;2022-07-10T04:30:56;3.15;;;2.20;;
17761;SDS011;9005;48.838;10.112;2022-07-10T04:33:24;1.75;;;1.65;;
17761;SDS011;9005;48.838;10.112;2022-07-10T04:35:52;2.72;;;2.03;;
17761;SDS011;9005;48.838;10.112;2022-07-10T04:38:19;2.45;;;2.25;;
17761;SDS011;9005;48.838;10.112;2022-07-10T04:40:45;2.30;;;2.10;;
17761;SDS011;9005;48.838;10.112;2022-07-10T04:43:14;2.85;;;2.10;;
17761;SDS011;9005;48.838;10.112;2022-07-10T04:45:40;4.78;;;2.35;;
17761;SDS011;9005;48.838;10.112;2022-07-10T04:48:07;2.50;;;2.25;;
17761;SDS011;9005;48.838;10.112;2022-07-10T04:50:34;2.53;;;2.33;;
17761;SDS011;9005;48.838;10.112;2022-07-10T04:53:01;7.15;;;2.47;;
17761;SDS011;9005;48.838;10.112;2022-07-10T04:55:28;3.83;;;2.35;;
17761;SDS011;9005;48.838;10.112;2022-07-10T04:57:55;3.25;;;2.53;;
17761;SDS011;9005;48.838;10.112;2022-07-10T05:00:23;3.65;;;2.25;;
17761;SDS011;9005;48.838;10.112;2022-07-10T05:02:50;3.10;;;2.22;;
17761;SDS011;9005;48.838;10.112;2022-07-10T05:05:17;2.15;;;1.95;;
17761;SDS011;9005;48.838;10.112;2022-07-10T05:07:44;1.95;;;1.75;;
17761;SDS011;9005;48.838;10.112;2022-07-10T05:10:10;2.25;;;1.85;;
17761;SDS011;9005;48.838;10.112;2022-07-10T05:12:37;2.55;;;1.58;;
17761;SDS011;9005;48.838;10.112;2022-07-10T05:15:04;2.95;;;1.90;;
17761;SDS011;9005;48.838;10.112;2022-07-10T05:17:34;2.83;;;1.88;;
17761;SDS011;9005;48.838;10.112;2022-07-10T05:20:01;2.10;;;1.67;;
17761;SDS011;9005;48.838;10.112;2022-07-10T05:22:28;2.22;;;1.40;;
17761;SDS011;9005;48.838;10.112;2022-07-10T05:24:55;2.58;;;1.70;;
17761;SDS011;9005;48.838;10.112;2022-07-10T05:27:22;2.30;;;1.40;;
17761;SDS011;9005;48.838;10.112;2022-07-10T05:29:50;2.80;;;1.70;;
17761;SDS011;9005;48.838;10.112;2022-07-10T05:32:17;2.47;;;1.40;;
17761;SDS011;9005;48.838;10.112;2022-07-10T05:34:45;2.33;;;1.58;;
17761;SDS011;9005;48.838;10.112;2022-07-10T05:37:12;1.83;;;1.30;;
17761;SDS011;9005;48.838;10.112;2022-07-10T05:39:39;2.20;;;1.48;;
17761;SDS011;9005;48.838;10.112;2022-07-10T05:42:06;2.80;;;1.33;;
17761;SDS011;9005;48.838;10.112;2022-07-10T05:44:33;2.30;;;1.50;;
17761;SDS011;9005;48.838;10.112;2022-07-10T05:47:00;2.40;;;1.73;;
17761;SDS011;9005;48.838;10.112;2022-07-10T05:49:26;2.42;;;1.30;;
17761;SDS011;9005;48.838;10.112;2022-07-10T05:51:55;3.05;;;1.70;;
17761;SDS011;9005;48.838;10.112;2022-07-10T05:54:21;3.42;;;1.70;;
17761;SDS011;9005;48.838;10.112;2022-07-10T05:56:48;3.85;;;1.65;;
17761;SDS011;9005;48.838;10.112;2022-07-10T05:59:16;3.22;;;1.48;;
17761;SDS011;9005;48.838;10.112;2022-07-10T06:01:43;1.50;;;1.20;;
17761;SDS011;9005;48.838;10.112;2022-07-10T06:04:09;7.93;;;2.08;;
17761;SDS011;9005;48.838;10.112;2022-07-10T06:06:36;2.25;;;1.35;;
17761;SDS011;9005;48.838;10.112;2022-07-10T06:09:05;3.63;;;1.65;;
17761;SDS011;9005;48.838;10.112;2022-07-10T06:11:31;2.38;;;1.50;;
17761;SDS011;9005;48.838;10.112;2022-07-10T06:13:59;2.05;;;0.90;;
17761;SDS011;9005;48.838;10.112;2022-07-10T06:16:26;5.68;;;1.75;;
17761;SDS011;9005;48.838;10.112;2022-07-10T06:18:53;2.78;;;1.13;;
17761;SDS011;9005;48.838;10.112;2022-07-10T06:21:19;3.08;;;1.20;;
17761;SDS011;9005;48.838;10.112;2022-07-10T06:23:48;3.17;;;1.17;;
17761;SDS011;9005;48.838;10.112;2022-07-10T06:26:16;1.88;;;1.10;;
17761;SDS011;9005;48.838;10.112;2022-07-10T06:28:43;2.35;;;1.17;;
17761;SDS011;9005;48.838;10.112;2022-07-10T06:31:10;3.95;;;1.60;;
17761;SDS011;9005;48.838;10.112;2022-07-10T06:33:37;2.75;;;1.13;;
17761;SDS011;9005;48.838;10.112;2022-07-10T06:36:04;2.13;;;1.35;;
17761;SDS011;9005;48.838;10.112;2022-07-10T06:38:32;2.15;;;1.10;;
17761;SDS011;9005;48.838;10.112;2022-07-10T06:40:59;4.03;;;1.27;;
17761;SDS011;9005;48.838;10.112;2022-07-10T06:43:27;4.38;;;1.30;;
17761;SDS011;9005;48.838;10.112;2022-07-10T06:45:54;3.35;;;1.20;;
17761;SDS011;9005;48.838;10.112;2022-07-10T06:48:21;2.83;;;1.13;;
17761;SDS011;9005;48.838;10.112;2022-07-10T06:50:47;0.77;;;0.77;;
17761;SDS011;9005;48.838;10.112;2022-07-10T06:53:14;1.40;;;0.73;;
17761;SDS011;9005;48.838;10.112;2022-07-10T06:55:41;5.47;;;0.95;;
17761;SDS011;9005;48.838;10.112;2022-07-10T06:58:08;1.27;;;0.98;;
17761;SDS011;9005;48.838;10.112;2022-07-10T07:00:36;2.30;;;1.15;;
17761;SDS011;9005;48.838;10.112;2022-07-10T07:03:03;3.38;;;1.23;;
17761;SDS011;9005;48.838;10.112;2022-07-10T07:05:30;1.05;;;0.95;;
17761;SDS011;9005;48.838;10.112;2022-07-10T07:07:57;7.00;;;1.63;;
17761;SDS011;9005;48.838;10.112;2022-07-10T07:10:24;1.15;;;0.70;;
17761;SDS011;9005;48.838;10.112;2022-07-10T07:12:51;1.58;;;0.82;;
17761;SDS011;9005;48.838;10.112;2022-07-10T07:15:18;3.95;;;1.02;;
17761;SDS011;9005;48.838;10.112;2022-07-10T07:17:49;3.10;;;1.42;;
17761;SDS011;9005;48.838;10.112;2022-07-10T07:20:36;1.55;;;0.80;;
17761;SDS011;9005;48.838;10.112;2022-07-10T07:23:21;1.88;;;0.90;;
17761;SDS011;9005;48.838;10.112;2022-07-10T07:25:49;1.42;;;1.00;;
17761;SDS011;9005;48.838;10.112;2022-07-10T07:28:17;3.28;;;1.10;;
17761;SDS011;9005;48.838;10.112;2022-07-10T07:30:45;4.30;;;0.95;;
17761;SDS011;9005;48.838;10.112;2022-07-10T07:33:13;0.98;;;0.60;;
17761;SDS011;9005;48.838;10.112;2022-07-10T07:35:40;1.50;;;0.77;;
17761;SDS011;9005;48.838;10.112;2022-07-10T07:38:08;0.93;;;0.63;;
17761;SDS011;9005;48.838;10.112;2022-07-10T07:40:34;0.70;;;0.60;;
17761;SDS011;9005;48.838;10.112;2022-07-10T07:43:02;2.03;;;0.88;;
17761;SDS011;9005;48.838;10.112;2022-07-10T07:45:29;1.55;;;0.95;;
17761;SDS011;9005;48.838;10.112;2022-07-10T07:47:56;1.27;;;0.70;;
17761;SDS011;9005;48.838;10.112;2022-07-10T07:50:28;1.50;;;0.80;;
17761;SDS011;9005;48.838;10.112;2022-07-10T07:52:57;0.77;;;0.73;;
17761;SDS011;9005;48.838;10.112;2022-07-10T07:55:24;1.10;;;0.70;;
17761;SDS011;9005;48.838;10.112;2022-07-10T07:57:51;3.55;;;1.02;;
17761;SDS011;9005;48.838;10.112;2022-07-10T08:00:20;1.42;;;0.50;;
17761;SDS011;9005;48.838;10.112;2022-07-10T08:02:48;1.15;;;0.60;;
17761;SDS011;9005;48.838;10.112;2022-07-10T08:05:16;2.28;;;0.85;;
17761;SDS011;9005;48.838;10.112;2022-07-10T08:07:45;2.28;;;0.55;;
17761;SDS011;9005;48.838;10.112;2022-07-10T08:10:13;2.08;;;0.93;;
17761;SDS011;9005;48.838;10.112;2022-07-10T08:12:42;1.33;;;0.75;;
17761;SDS011;9005;48.838;10.112;2022-07-10T08:15:10;1.45;;;0.70;;
17761;SDS011;9005;48.838;10.112;2022-07-10T08:17:38;1.02;;;0.90;;
17761;SDS011;9005;48.838;10.112;2022-07-10T08:20:10;2.90;;;1.02;;
17761;SDS011;9005;48.838;10.112;2022-07-10T08:22:38;2.45;;;0.75;;
17761;SDS011;9005;48.838;10.112;2022-07-10T08:25:07;1.65;;;0.90;;
17761;SDS011;9005;48.838;10.112;2022-07-10T08:27:35;1.08;;;0.60;;
17761;SDS011;9005;48.838;10.112;2022-07-10T08:30:03;2.00;;;0.70;;
17761;SDS011;9005;48.838;10.112;2022-07-10T08:32:30;2.85;;;0.90;;
17761;SDS011;9005;48.838;10.112;2022-07-10T08:34:57;3.03;;;1.13;;
17761;SDS011;9005;48.838;10.112;2022-07-10T08:37:24;1.05;;;0.85;;
17761;SDS011;9005;48.838;10.112;2022-07-10T08:39:51;1.65;;;1.02;;
17761;SDS011;9005;48.838;10.112;2022-07-10T08:42:19;0.80;;;0.80;;
17761;SDS011;9005;48.838;10.112;2022-07-10T08:44:47;2.45;;;0.90;;
17761;SDS011;9005;48.838;10.112;2022-07-10T08:47:14;1.20;;;0.70;;
17761;SDS011;9005;48.838;10.112;2022-07-10T08:49:45;2.67;;;0.90;;
17761;SDS011;9005;48.838;10.112;2022-07-10T08:52:15;2.78;;;1.05;;
17761;SDS011;9005;48.838;10.112;2022-07-10T08:54:51;1.20;;;0.80;;
17761;SDS011;9005;48.838;10.112;2022-07-10T08:57:19;1.27;;;0.70;;
17761;SDS011;9005;48.838;10.112;2022-07-10T08:59:46;2.90;;;0.75;;
17761;SDS011;9005;48.838;10.112;2022-07-10T09:02:13;0.80;;;0.50;;
17761;SDS011;9005;48.838;10.112;2022-07-10T09:04:40;2.55;;;0.80;;
17761;SDS011;9005;48.838;10.112;2022-07-10T09:07:07;2.47;;;0.80;;
17761;SDS011;9005;48.838;10.112;2022-07-10T09:09:50;2.05;;;0.93;;
17761;SDS011;9005;48.838;10.112;2022-07-10T09:12:20;1.75;;;1.10;;
17761;SDS011;9005;48.838;10.112;2022-07-10T09:14:47;2.33;;;0.73;;
17761;SDS011;9005;48.838;10.112;2022-07-10T09:17:14;0.93;;;0.65;;
17761;SDS011;9005;48.838;10.112;2022-07-10T09:19:41;3.40;;;1.27;;
17761;SDS011;9005;48.838;10.112;2022-07-10T09:22:09;1.45;;;0.70;;
17761;SDS011;9005;48.838;10.112;2022-07-10T09:24:37;1.45;;;0.70;;
17761;SDS011;9005;48.838;10.112;2022-07-10T09:27:05;2.28;;;1.05;;
17761;SDS011;9005;48.838;10.112;2022-07-10T09:29:44;3.15;;;0.77;;
17761;SDS011;9005;48.838;10.112;2022-07-10T09:32:12;1.48;;;0.60;;
17761;SDS011;9005;48.838;10.112;2022-07-10T09:34:40;1.00;;;0.70;;
17761;SDS011;9005;48.838;10.112;2022-07-10T09:37:20;3.05;;;0.90;;
17761;SDS011;9005;48.838;10.112;2022-07-10T09:39:52;1.23;;;0.80;;
17761;SDS011;9005;48.838;10.112;2022-07-10T09:42:27;1.00;;;0.68;;
17761;SDS011;9005;48.838;10.112;2022-07-10T09:45:17;2.20;;;0.70;;
17761;SDS011;9005;48.838;10.112;2022-07-10T09:47:45;2.53;;;0.60;;
17761;SDS011;9005;48.838;10.112;2022-07-10T09:50:20;1.08;;;0.77;;
17761;SDS011;9005;48.838;10.112;2022-07-10T09:52:49;1.33;;;0.90;;
17761;SDS011;9005;48.838;10.112;2022-07-10T09:55:18;2.45;;;0.77;;
17761;SDS011;9005;48.838;10.112;2022-07-10T09:57:47;1.35;;;1.15;;
17761;SDS011;9005;48.838;10.112;2022-07-10T10:00:20;1.08;;;0.60;;
17761;SDS011;9005;48.838;10.112;2022-07-10T10:02:55;0.73;;;0.70;;
17761;SDS011;9005;48.838;10.112;2022-07-10T10:05:25;1.42;;;0.50;;
17761;SDS011;9005;48.838;10.112;2022-07-10T10:08:09;1.45;;;0.77;;
17761;SDS011;9005;48.838;10.112;2022-07-10T10:10:40;2.28;;;1.00;;
17761;SDS011;9005;48.838;10.112;2022-07-10T10:13:11;1.75;;;0.85;;
17761;SDS011;9005;48.838;10.112;2022-07-10T10:15:40;0.57;;;0.52;;
17761;SDS011;9005;48.838;10.112;2022-07-10T10:18:09;2.58;;;0.63;;
17761;SDS011;9005;48.838;10.112;2022-07-10T10:20:38;1.10;;;0.93;;
17761;SDS011;9005;48.838;10.112;2022-07-10T10:23:09;1.73;;;0.80;;
17761;SDS011;9005;48.838;10.112;2022-07-10T10:25:37;2.40;;;0.63;;
17761;SDS011;9005;48.838;10.112;2022-07-10T10:28:05;0.80;;;0.65;;
17761;SDS011;9005;48.838;10.112;2022-07-10T10:30:36;0.75;;;0.63;;
17761;SDS011;9005;48.838;10.112;2022-07-10T10:36:06;1.63;;;0.70;;
17761;SDS011;9005;48.838;10.112;2022-07-10T10:41:29;1.98;;;0.70;;
17761;SDS011;9005;48.838;10.112;2022-07-10T10:44:22;1.13;;;0.60;;
17761;SDS011;9005;48.838;10.112;2022-07-10T10:46:54;2.63;;;0.80;;
17761;SDS011;9005;48.838;10.112;2022-07-10T10:52:32;2.05;;;0.70;;
17761;SDS011;9005;48.838;10.112;2022-07-10T10:54:59;3.03;;;0.63;;
17761;SDS011;9005;48.838;10.112;2022-07-10T10:57:38;0.63;;;0.60;;
17761;SDS011;9005;48.838;10.112;2022-07-10T11:00:11;0.70;;;0.55;;
17761;SDS011;9005;48.838;10.112;2022-07-10T11:02:40;1.60;;;0.85;;
17761;SDS011;9005;48.838;10.112;2022-07-10T11:08:08;1.13;;;0.63;;
17761;SDS011;9005;48.838;10.112;2022-07-10T11:10:36;0.60;;;0.60;;
17761;SDS011;9005;48.838;10.112;2022-07-10T11:13:04;1.55;;;0.52;;
17761;SDS011;9005;48.838;10.112;2022-07-10T11:15:32;0.95;;;0.60;;
17761;SDS011;9005;48.838;10.112;2022-07-10T11:18:05;2.20;;;0.88;;
17761;SDS011;9005;48.838;10.112;2022-07-10T11:20:34;1.00;;;0.60;;
17761;SDS011;9005;48.838;10.112;2022-07-10T11:23:22;1.42;;;0.88;;
17761;SDS011;9005;48.838;10.112;2022-07-10T11:26:02;0.85;;;0.57;;
17761;SDS011;9005;48.838;10.112;2022-07-10T11:31:16;1.90;;;1.20;;
17761;SDS011;9005;48.838;10.112;2022-07-10T11:33:44;1.27;;;0.70;;
17761;SDS011;9005;48.838;10.112;2022-07-10T11:36:13;1.27;;;0.82;;
17761;SDS011;9005;48.838;10.112;2022-07-10T11:38:44;1.00;;;0.80;;
17761;SDS011;9005;48.838;10.112;2022-07-10T11:41:12;1.45;;;0.60;;
17761;SDS011;9005;48.838;10.112;2022-07-10T11:43:50;1.08;;;0.60;;
17761;SDS011;9005;48.838;10.112;2022-07-10T11:46:17;1.25;;;0.88;;
17761;SDS011;9005;48.838;10.112;2022-07-10T11:48:46;1.00;;;0.77;;
17761;SDS011;9005;48.838;10.112;2022-07-10T11:51:24;1.23;;;0.70;;
17761;SDS011;9005;48.838;10.112;2022-07-10T11:53:54;1.30;;;0.80;;
17761;SDS011;9005;48.838;10.112;2022-07-10T11:56:22;1.42;;;0.88;;
17761;SDS011;9005;48.838;10.112;2022-07-10T11:58:55;2.08;;;1.05;;
17761;SDS011;9005;48.838;10.112;2022-07-10T12:01:23;1.80;;;0.90;;
17761;SDS011;9005;48.838;10.112;2022-07-10T12:03:54;0.98;;;0.77;;
17761;SDS011;9005;48.838;10.112;2022-07-10T12:06:24;3.00;;;0.95;;
17761;SDS011;9005;48.838;10.112;2022-07-10T12:08:54;0.82;;;0.68;;
17761;SDS011;9005;48.838;10.112;2022-07-10T12:11:21;1.20;;;0.90;;
17761;SDS011;9005;48.838;10.112;2022-07-10T12:13:49;0.80;;;0.80;;
17761;SDS011;9005;48.838;10.112;2022-07-10T12:16:18;0.82;;;0.70;;
17761;SDS011;9005;48.838;10.112;2022-07-10T12:18:46;1.70;;;0.90;;
17761;SDS011;9005;48.838;10.112;2022-07-10T12:21:14;2.78;;;1.27;;
17761;SDS011;9005;48.838;10.112;2022-07-10T12:23:44;0.73;;;0.50;;
17761;SDS011;9005;48.838;10.112;2022-07-10T12:26:15;0.75;;;0.50;;
17761;SDS011;9005;48.838;10.112;2022-07-10T12:28:52;1.10;;;0.60;;
17761;SDS011;9005;48.838;10.112;2022-07-10T12:31:21;6.25;;;0.85;;
17761;SDS011;9005;48.838;10.112;2022-07-10T12:33:51;0.65;;;0.60;;
17761;SDS011;9005;48.838;10.112;2022-07-10T12:36:22;0.57;;;0.57;;
17761;SDS011;9005;48.838;10.112;2022-07-10T12:38:53;0.40;;;0.40;;
17761;SDS011;9005;48.838;10.112;2022-07-10T12:41:25;0.68;;;0.50;;
17761;SDS011;9005;48.838;10.112;2022-07-10T12:43:52;1.00;;;0.50;;
17761;SDS011;9005;48.838;10.112;2022-07-10T12:46:20;0.50;;;0.50;;
17761;SDS011;9005;48.838;10.112;2022-07-10T12:49:01;1.35;;;0.80;;
17761;SDS011;9005;48.838;10.112;2022-07-10T12:51:29;0.98;;;0.70;;
17761;SDS011;9005;48.838;10.112;2022-07-10T12:53:57;1.25;;;0.52;;
17761;SDS011;9005;48.838;10.112;2022-07-10T12:56:36;0.73;;;0.40;;
17761;SDS011;9005;48.838;10.112;2022-07-10T12:59:05;1.80;;;0.60;;
17761;SDS011;9005;48.838;10.112;2022-07-10T13:01:39;0.52;;;0.40;;
17761;SDS011;9005;48.838;10.112;2022-07-10T13:04:07;0.98;;;0.70;;
17761;SDS011;9005;48.838;10.112;2022-07-10T13:06:35;1.35;;;0.70;;
17761;SDS011;9005;48.838;10.112;2022-07-10T13:09:17;1.40;;;0.77;;
17761;SDS011;9005;48.838;10.112;2022-07-10T13:11:46;1.23;;;0.65;;
17761;SDS011;9005;48.838;10.112;2022-07-10T13:14:13;1.05;;;0.70;;
17761;SDS011;9005;48.838;10.112;2022-07-10T13:16:40;1.08;;;0.73;;
17761;SDS011;9005;48.838;10.112;2022-07-10T13:19:07;1.95;;;0.60;;
17761;SDS011;9005;48.838;10.112;2022-07-10T13:21:34;1.63;;;0.50;;
17761;SDS011;9005;48.838;10.112;2022-07-10T13:24:01;1.25;;;0.70;;
17761;SDS011;9005;48.838;10.112;2022-07-10T13:26:28;1.50;;;0.65;;
17761;SDS011;9005;48.838;10.112;2022-07-10T13:28:57;1.40;;;0.80;;
17761;SDS011;9005;48.838;10.112;2022-07-10T13:31:25;0.73;;;0.50;;
17761;SDS011;9005;48.838;10.112;2022-07-10T13:33:52;3.47;;;0.93;;
17761;SDS011;9005;48.838;10.112;2022-07-10T13:36:19;1.38;;;0.93;;
17761;SDS011;9005;48.838;10.112;2022-07-10T13:38:46;2.25;;;0.60;;
17761;SDS011;9005;48.838;10.112;2022-07-10T13:41:14;1.33;;;0.60;;
17761;SDS011;9005;48.838;10.112;2022-07-10T13:43:41;1.40;;;0.60;;
17761;SDS011;9005;48.838;10.112;2022-07-10T13:46:10;1.10;;;0.70;;
17761;SDS011;9005;48.838;10.112;2022-07-10T13:48:37;1.73;;;0.63;;
17761;SDS011;9005;48.838;10.112;2022-07-10T13:51:04;0.77;;;0.60;;
17761;SDS011;9005;48.838;10.112;2022-07-10T13:53:31;0.85;;;0.60;;
17761;SDS011;9005;48.838;10.112;2022-07-10T13:55:58;0.93;;;0.50;;
17761;SDS011;9005;48.838;10.112;2022-07-10T13:58:25;1.58;;;0.70;;
17761;SDS011;9005;48.838;10.112;2022-07-10T14:00:52;1.38;;;0.50;;
17761;SDS011;9005;48.838;10.112;2022-07-10T14:03:20;2.30;;;0.82;;
17761;SDS011;9005;48.838;10.112;2022-07-10T14:05:47;0.95;;;0.73;;
17761;SDS011;9005;48.838;10.112;2022-07-10T14:08:14;1.52;;;0.80;;
17761;SDS011;9005;48.838;10.112;2022-07-10T14:10:40;0.93;;;0.60;;
17761;SDS011;9005;48.838;10.112;2022-07-10T14:13:07;0.60;;;0.60;;
17761;SDS011;9005;48.838;10.112;2022-07-10T14:15:34;1.58;;;0.65;;
17761;SDS011;9005;48.838;10.112;2022-07-10T14:18:02;0.63;;;0.45;;
17761;SDS011;9005;48.838;10.112;2022-07-10T14:20:30;0.80;;;0.50;;
17761;SDS011;9005;48.838;10.112;2022-07-10T14:23:18;1.15;;;0.75;;
17761;SDS011;9005;48.838;10.112;2022-07-10T14:25:45;1.25;;;0.65;;
17761;SDS011;9005;48.838;10.112;2022-07-10T14:28:13;1.33;;;0.60;;
17761;SDS011;9005;48.838;10.112;2022-07-10T14:30:40;1.40;;;0.60;;
17761;SDS011;9005;48.838;10.112;2022-07-10T14:33:08;1.38;;;0.70;;
17761;SDS011;9005;48.838;10.112;2022-07-10T14:35:37;1.05;;;0.60;;
17761;SDS011;9005;48.838;10.112;2022-07-10T14:38:04;1.65;;;0.50;;
17761;SDS011;9005;48.838;10.112;2022-07-10T14:40:30;0.40;;;0.40;;
17761;SDS011;9005;48.838;10.112;2022-07-10T14:42:57;0.57;;;0.57;;
17761;SDS011;9005;48.838;10.112;2022-07-10T14:45:25;0.88;;;0.60;;
17761;SDS011;9005;48.838;10.112;2022-07-10T14:47:51;3.67;;;0.77;;
17761;SDS011;9005;48.838;10.112;2022-07-10T14:50:19;1.30;;;0.57;;
17761;SDS011;9005;48.838;10.112;2022-07-10T14:52:47;0.50;;;0.50;;
17761;SDS011;9005;48.838;10.112;2022-07-10T14:55:14;1.55;;;0.70;;
17761;SDS011;9005;48.838;10.112;2022-07-10T14:57:41;1.13;;;0.70;;
17761;SDS011;9005;48.838;10.112;2022-07-10T15:00:08;1.25;;;0.65;;
17761;SDS011;9005;48.838;10.112;2022-07-10T15:02:36;1.27;;;0.80;;
17761;SDS011;9005;48.838;10.112;2022-07-10T15:05:03;1.38;;;0.60;;
17761;SDS011;9005;48.838;10.112;2022-07-10T15:07:30;1.65;;;0.63;;
17761;SDS011;9005;48.838;10.112;2022-07-10T15:09:58;0.65;;;0.52;;